createdAt,value
2023-03-17T00:01:44.709Z,9.90
2023-03-17T00:04:12.962Z,9.84
2023-03-17T00:06:41.403Z,9.78
2023-03-17T00:09:16.123Z,9.74
2023-03-17T00:11:44.779Z,9.92
2023-03-17T00:14:11.710Z,9.71
2023-03-17T00:16:42.231Z,9.88
2023-03-17T00:19:17.063Z,10.02
2023-03-17T00:21:46.114Z,9.95
2023-03-17T00:24:15.002Z,9.94
2023-03-17T00:26:42.505Z,10.02
2023-03-17T00:29:13.672Z,9.92
2023-03-17T00:31:45.388Z,9.91
2023-03-17T00:34:16.583Z,9.93
2023-03-17T00:36:50.039Z,9.95
2023-03-17T00:39:17.185Z,9.90
2023-03-17T00:41:44.166Z,9.91
2023-03-17T00:44:11.830Z,9.92
2023-03-17T00:46:39.337Z,9.76
2023-03-17T00:49:25.696Z,9.76
2023-03-17T00:51:52.850Z,9.68
2023-03-17T00:54:21.922Z,9.67
2023-03-17T00:56:52.015Z,9.66
2023-03-17T00:59:28.961Z,9.67
2023-03-17T01:01:56.237Z,9.66
2023-03-17T01:04:23.920Z,9.71
2023-03-17T01:06:52.380Z,9.58
2023-03-17T01:09:21.182Z,9.54
2023-03-17T01:11:49.144Z,9.62
2023-03-17T01:14:16.899Z,9.50
2023-03-17T01:16:44.820Z,9.58
2023-03-17T01:19:15.025Z,9.70
2023-03-17T01:21:42.517Z,9.55
2023-03-17T01:24:09.714Z,9.50
2023-03-17T01:26:36.590Z,9.67
2023-03-17T01:29:04.898Z,9.72
2023-03-17T01:31:31.765Z,9.58
2023-03-17T01:33:58.636Z,9.65
2023-03-17T01:36:26.148Z,9.55
2023-03-17T01:38:52.889Z,9.50
2023-03-17T01:41:21.980Z,9.53
2023-03-17T01:43:48.667Z,9.58
2023-03-17T01:46:45.329Z,9.58
2023-03-17T01:49:25.015Z,9.31
2023-03-17T01:51:58.667Z,9.30
2023-03-17T01:54:50.345Z,9.44
2023-03-17T01:57:25.229Z,9.39
2023-03-17T02:00:01.851Z,9.51
2023-03-17T02:02:34.632Z,9.48
2023-03-17T02:05:03.705Z,9.32
2023-03-17T02:07:31.334Z,9.37
2023-03-17T02:09:58.886Z,9.41
2023-03-17T02:12:31.325Z,9.35
2023-03-17T02:14:58.700Z,9.50
2023-03-17T02:17:45.461Z,9.40
2023-03-17T02:20:17.379Z,9.43
2023-03-17T02:22:54.846Z,9.37
2023-03-17T02:25:24.252Z,9.32
2023-03-17T02:27:54.777Z,9.23
2023-03-17T02:30:42.345Z,9.08
2023-03-17T02:33:10.404Z,9.21
2023-03-17T02:35:37.072Z,9.10
2023-03-17T02:38:04.268Z,8.96
2023-03-17T02:40:31.227Z,8.93
2023-03-17T02:42:59.323Z,8.95
2023-03-17T02:45:28.802Z,8.76
2023-03-17T02:47:55.954Z,8.68
2023-03-17T02:50:25.774Z,8.62
2023-03-17T02:52:52.436Z,8.69
2023-03-17T02:55:20.376Z,8.51
2023-03-17T02:57:46.986Z,8.71
2023-03-17T03:00:14.316Z,8.79
2023-03-17T03:02:41.326Z,8.68
2023-03-17T03:05:08.879Z,8.41
2023-03-17T03:07:36.316Z,8.44
2023-03-17T03:10:04.045Z,8.43
2023-03-17T03:12:30.723Z,8.31
2023-03-17T03:14:57.337Z,8.39
2023-03-17T03:17:24.051Z,8.36
2023-03-17T03:19:50.671Z,8.32
2023-03-17T03:22:17.352Z,8.28
2023-03-17T03:24:44.025Z,8.29
2023-03-17T03:27:10.913Z,8.31
2023-03-17T03:29:38.240Z,8.35
2023-03-17T03:32:05.249Z,8.21
2023-03-17T03:34:31.876Z,8.12
2023-03-17T03:36:58.454Z,7.94
2023-03-17T03:39:25.361Z,7.88
2023-03-17T03:41:52.161Z,7.90
2023-03-17T03:44:18.900Z,7.87
2023-03-17T03:46:45.768Z,7.92
2023-03-17T03:49:12.447Z,7.90
2023-03-17T03:51:39.060Z,7.89
2023-03-17T03:54:05.795Z,7.92
2023-03-17T03:56:32.682Z,7.82
2023-03-17T03:59:01.601Z,7.86
2023-03-17T04:01:28.335Z,7.69
2023-03-17T04:03:54.958Z,7.82
2023-03-17T04:06:21.751Z,7.73
2023-03-17T04:08:48.406Z,7.71
2023-03-17T04:11:15.136Z,7.69
2023-03-17T04:13:41.894Z,7.67
2023-03-17T04:16:08.792Z,7.64
2023-03-17T04:18:35.656Z,7.68
2023-03-17T04:21:02.342Z,7.74
2023-03-17T04:23:28.983Z,7.66
2023-03-17T04:25:55.739Z,7.73
2023-03-17T04:28:22.531Z,7.65
2023-03-17T04:30:49.146Z,7.65
2023-03-17T04:33:15.902Z,7.59
2023-03-17T04:35:42.531Z,7.66
2023-03-17T04:38:12.848Z,7.52
2023-03-17T04:40:39.462Z,7.60
2023-03-17T04:43:06.482Z,7.59
2023-03-17T04:45:33.229Z,7.59
2023-03-17T04:47:59.941Z,7.48
2023-03-17T04:50:26.554Z,7.45
2023-03-17T04:52:53.212Z,7.39
2023-03-17T04:55:20.736Z,7.47
2023-03-17T04:57:47.488Z,7.58
2023-03-17T05:00:15.480Z,7.47
2023-03-17T05:02:42.278Z,7.27
2023-03-17T05:05:09.878Z,7.27
2023-03-17T05:07:36.581Z,7.06
2023-03-17T05:10:03.626Z,7.01
2023-03-17T05:12:30.541Z,7.04
2023-03-17T05:14:57.761Z,6.91
2023-03-17T05:17:27.625Z,7.00
2023-03-17T05:19:54.568Z,7.27
2023-03-17T05:22:21.572Z,7.37
2023-03-17T05:24:48.231Z,7.33
2023-03-17T05:27:15.496Z,7.34
2023-03-17T05:29:42.342Z,7.24
2023-03-17T05:32:09.139Z,7.29
2023-03-17T05:34:35.811Z,7.24
2023-03-17T05:37:03.299Z,7.08
2023-03-17T05:39:29.999Z,7.14
2023-03-17T05:41:57.209Z,7.06
2023-03-17T05:44:24.006Z,7.26
2023-03-17T05:46:51.032Z,7.13
2023-03-17T05:49:18.740Z,7.12
2023-03-17T05:51:45.422Z,7.24
2023-03-17T05:54:12.338Z,7.32
2023-03-17T05:56:39.126Z,7.31
2023-03-17T05:59:05.719Z,7.32
2023-03-17T06:01:32.384Z,7.13
2023-03-17T06:04:00.857Z,7.21
2023-03-17T06:06:28.627Z,7.04
2023-03-17T06:08:55.278Z,7.31
2023-03-17T06:11:22.041Z,7.11
2023-03-17T06:13:48.762Z,7.13
2023-03-17T06:16:15.649Z,7.19
2023-03-17T06:18:42.403Z,7.28
2023-03-17T06:21:09.218Z,7.18
2023-03-17T06:23:36.511Z,7.12
2023-03-17T06:26:03.567Z,7.12
2023-03-17T06:28:30.952Z,7.26
2023-03-17T06:30:58.112Z,7.23
2023-03-17T06:33:25.394Z,7.04
2023-03-17T06:35:52.798Z,7.11
2023-03-17T06:38:20.838Z,7.15
2023-03-17T06:40:47.901Z,7.21
2023-03-17T06:43:14.690Z,7.17
2023-03-17T06:45:41.714Z,7.33
2023-03-17T06:48:08.448Z,7.50
2023-03-17T06:50:35.265Z,7.97
2023-03-17T06:53:01.899Z,8.19
2023-03-17T06:55:29.087Z,8.12
2023-03-17T06:57:56.269Z,8.22
2023-03-17T07:00:23.100Z,8.28
2023-03-17T07:02:49.713Z,8.34
2023-03-17T07:05:16.413Z,8.59
2023-03-17T07:07:43.505Z,8.94
2023-03-17T07:10:10.937Z,8.68
2023-03-17T07:12:37.711Z,9.02
2023-03-17T07:15:04.829Z,8.92
2023-03-17T07:17:31.430Z,8.87
2023-03-17T07:19:58.105Z,8.71
2023-03-17T07:22:24.849Z,8.82
2023-03-17T07:24:52.490Z,9.14
2023-03-17T07:27:22.661Z,9.03
2023-03-17T07:29:49.472Z,8.76
2023-03-17T07:32:16.226Z,8.92
2023-03-17T07:34:43.272Z,8.65
2023-03-17T07:37:10.403Z,8.56
2023-03-17T07:39:37.795Z,8.68
2023-03-17T07:42:04.946Z,8.87
2023-03-17T07:44:32.482Z,8.69
2023-03-17T07:46:59.056Z,8.69
2023-03-17T07:49:40.403Z,8.75
2023-03-17T07:52:09.887Z,8.53
2023-03-17T07:54:37.529Z,8.84
2023-03-17T07:57:05.253Z,8.65
2023-03-17T07:59:32.661Z,8.81
2023-03-17T08:02:01.229Z,9.22
2023-03-17T08:04:28.292Z,9.71
2023-03-17T08:06:54.938Z,9.59
2023-03-17T08:09:24.491Z,10.10
2023-03-17T08:11:51.206Z,10.25
2023-03-17T08:14:17.890Z,10.94
2023-03-17T08:16:44.609Z,11.11
2023-03-17T08:19:11.723Z,11.58
2023-03-17T08:21:38.503Z,11.64
2023-03-17T08:24:05.840Z,11.73
2023-03-17T08:26:32.704Z,11.75
2023-03-17T08:28:59.665Z,12.08
2023-03-17T08:31:26.454Z,11.98
2023-03-17T08:33:56.537Z,11.98
2023-03-17T08:36:23.950Z,11.59
2023-03-17T08:38:51.046Z,11.57
2023-03-17T08:41:20.764Z,11.87
2023-03-17T08:43:47.807Z,12.53
2023-03-17T08:46:27.131Z,12.85
2023-03-17T08:48:56.330Z,12.98
2023-03-17T08:51:25.521Z,13.13
2023-03-17T08:53:53.275Z,13.22
2023-03-17T08:56:20.078Z,13.12
2023-03-17T08:58:46.914Z,13.64
2023-03-17T09:01:15.240Z,13.56
2023-03-17T09:03:42.317Z,13.59
2023-03-17T09:06:12.365Z,13.51
2023-03-17T09:08:44.623Z,13.81
2023-03-17T09:11:13.714Z,13.43
2023-03-17T09:13:41.364Z,13.70
2023-03-17T09:16:08.808Z,13.58
2023-03-17T09:18:36.190Z,12.83
2023-03-17T09:21:03.615Z,12.68
2023-03-17T09:23:30.857Z,13.10
2023-03-17T09:25:57.484Z,13.15
2023-03-17T09:28:24.607Z,13.08
2023-03-17T09:30:52.713Z,13.21
2023-03-17T09:33:19.437Z,13.26
2023-03-17T09:35:46.079Z,13.22
2023-03-17T09:38:12.779Z,13.55
2023-03-17T09:41:00.362Z,14.04
2023-03-17T09:43:48.486Z,14.31
2023-03-17T09:46:28.583Z,13.55
2023-03-17T09:49:27.937Z,13.17
2023-03-17T09:51:54.955Z,13.25
2023-03-17T09:54:31.284Z,13.57
2023-03-17T09:57:05.965Z,13.37
2023-03-17T09:59:37.238Z,14.01
2023-03-17T10:02:27.059Z,14.37
2023-03-17T10:04:54.220Z,14.13
2023-03-17T10:07:28.505Z,13.95
2023-03-17T10:10:03.337Z,14.39
2023-03-17T10:12:46.134Z,14.58
2023-03-17T10:15:18.447Z,14.63
2023-03-17T10:17:46.077Z,14.59
2023-03-17T10:20:27.059Z,14.59
2023-03-17T10:22:59.325Z,14.87
2023-03-17T10:25:30.418Z,14.33
2023-03-17T10:28:03.402Z,14.65
2023-03-17T10:30:35.639Z,14.50
2023-03-17T10:33:06.965Z,14.17
2023-03-17T10:35:36.408Z,14.31
2023-03-17T10:38:32.878Z,14.30
2023-03-17T10:41:03.436Z,14.31
2023-03-17T10:43:36.060Z,13.86
2023-03-17T10:46:05.616Z,14.17
2023-03-17T10:48:37.704Z,14.59
2023-03-17T10:51:09.107Z,14.91
2023-03-17T10:53:43.429Z,14.18
2023-03-17T10:56:21.956Z,13.95
2023-03-17T10:58:50.765Z,14.27
2023-03-17T11:01:21.107Z,14.58
2023-03-17T11:03:48.802Z,14.86
2023-03-17T11:06:20.773Z,14.97
2023-03-17T11:08:50.764Z,15.10
2023-03-17T11:11:45.872Z,15.11
2023-03-17T11:14:16.125Z,14.96
2023-03-17T11:16:55.036Z,14.99
2023-03-17T11:20:04.864Z,14.20
2023-03-17T11:22:40.116Z,14.52
2023-03-17T11:25:15.402Z,14.15
2023-03-17T11:27:52.093Z,14.21
2023-03-17T11:30:34.537Z,14.03
2023-03-17T11:33:28.035Z,14.12
2023-03-17T11:36:14.131Z,14.23
2023-03-17T11:38:59.715Z,14.57
2023-03-17T11:41:56.246Z,14.64
2023-03-17T11:44:41.823Z,14.80
2023-03-17T11:47:22.137Z,15.22
2023-03-17T11:50:11.429Z,15.32
2023-03-17T11:52:52.465Z,15.39
2023-03-17T11:55:48.378Z,15.54
2023-03-17T11:58:28.566Z,15.63
2023-03-17T12:01:00.381Z,15.64
2023-03-17T12:03:40.165Z,15.25
2023-03-17T12:06:17.920Z,14.77
2023-03-17T12:08:59.677Z,14.96
2023-03-17T12:11:30.547Z,14.96
2023-03-17T12:14:04.822Z,15.11
2023-03-17T12:16:52.466Z,15.10
2023-03-17T12:19:39.127Z,15.21
2023-03-17T12:22:22.627Z,15.02
2023-03-17T12:25:05.273Z,15.08
2023-03-17T12:27:42.761Z,15.22
2023-03-17T12:30:29.100Z,15.20
2023-03-17T12:33:24.638Z,15.03
2023-03-17T12:35:52.034Z,15.19
2023-03-17T12:38:25.459Z,15.14
2023-03-17T12:41:14.181Z,15.43
2023-03-17T12:43:50.073Z,15.54
2023-03-17T12:46:29.127Z,15.69
2023-03-17T12:49:17.940Z,15.48
2023-03-17T12:52:04.150Z,15.70
2023-03-17T12:54:33.848Z,15.76
2023-03-17T12:57:17.161Z,15.85
2023-03-17T12:59:46.541Z,15.89
2023-03-17T13:02:23.143Z,15.76
2023-03-17T13:04:57.697Z,15.75
2023-03-17T13:07:37.115Z,15.56
2023-03-17T13:10:03.740Z,15.77
2023-03-17T13:12:39.775Z,15.83
2023-03-17T13:15:34.889Z,15.89
2023-03-17T13:18:16.886Z,15.91
2023-03-17T13:20:57.402Z,15.93
2023-03-17T13:23:53.458Z,15.67
2023-03-17T13:26:41.663Z,15.70
2023-03-17T13:29:25.730Z,15.85
2023-03-17T13:31:52.733Z,15.93
2023-03-17T13:34:20.530Z,15.92
2023-03-17T13:37:02.011Z,15.80
2023-03-17T13:39:54.772Z,15.89
2023-03-17T13:42:30.496Z,15.98
2023-03-17T13:45:18.631Z,15.81
2023-03-17T13:47:45.850Z,15.79
2023-03-17T13:50:16.447Z,15.70
2023-03-17T13:52:57.417Z,15.76
2023-03-17T13:55:24.101Z,15.31
2023-03-17T13:57:53.885Z,15.25
2023-03-17T14:00:25.852Z,15.19
2023-03-17T14:03:03.731Z,15.33
2023-03-17T14:05:36.150Z,15.49
2023-03-17T14:08:16.439Z,15.43
2023-03-17T14:10:44.489Z,15.46
2023-03-17T14:13:20.552Z,15.56
2023-03-17T14:16:12.387Z,15.60
2023-03-17T14:18:42.758Z,15.61
2023-03-17T14:21:24.307Z,15.64
2023-03-17T14:23:55.887Z,15.70
2023-03-17T14:26:27.696Z,15.78
2023-03-17T14:28:55.166Z,15.85
2023-03-17T14:31:28.118Z,15.82
2023-03-17T14:33:56.675Z,15.82
2023-03-17T14:36:24.349Z,15.76
2023-03-17T14:38:53.389Z,15.69
2023-03-17T14:41:22.616Z,15.65
2023-03-17T14:43:52.088Z,15.63
2023-03-17T14:46:27.667Z,15.59
2023-03-17T14:49:03.108Z,15.67
2023-03-17T14:51:39.563Z,15.62
2023-03-17T14:54:14.380Z,15.58
2023-03-17T14:56:43.570Z,15.57
2023-03-17T14:59:28.745Z,15.53
2023-03-17T15:01:57.949Z,15.58
2023-03-17T15:04:28.390Z,15.63
2023-03-17T15:06:57.406Z,15.66
2023-03-17T15:09:33.185Z,15.67
2023-03-17T15:12:06.806Z,15.64
2023-03-17T15:14:37.418Z,15.55
2023-03-17T15:17:07.425Z,15.55
2023-03-17T15:19:45.268Z,15.61
2023-03-17T15:22:29.333Z,15.64
2023-03-17T15:25:28.438Z,15.60
2023-03-17T15:27:55.977Z,15.61
2023-03-17T15:30:23.631Z,15.66
2023-03-17T15:33:03.210Z,15.57
2023-03-17T15:35:30.096Z,15.53
2023-03-17T15:37:56.880Z,15.57
2023-03-17T15:40:24.156Z,15.51
2023-03-17T15:42:50.807Z,15.63
2023-03-17T15:45:18.137Z,15.59
2023-03-17T15:47:47.258Z,15.71
2023-03-17T15:50:28.718Z,15.66
2023-03-17T15:52:57.014Z,15.64
2023-03-17T15:55:32.260Z,15.52
2023-03-17T15:57:59.183Z,15.39
2023-03-17T16:00:29.092Z,15.34
2023-03-17T16:02:59.565Z,15.36
2023-03-17T16:05:29.682Z,15.31
2023-03-17T16:07:57.261Z,15.33
2023-03-17T16:10:28.088Z,15.34
2023-03-17T16:12:55.386Z,15.29
2023-03-17T16:15:24.449Z,15.31
2023-03-17T16:17:53.897Z,15.25
2023-03-17T16:20:32.419Z,15.15
2023-03-17T16:23:07.200Z,15.02
2023-03-17T16:25:33.964Z,14.95
2023-03-17T16:28:07.283Z,14.88
2023-03-17T16:30:34.829Z,14.82
2023-03-17T16:33:16.341Z,14.80
2023-03-17T16:35:43.716Z,14.80
2023-03-17T16:38:14.333Z,14.85
2023-03-17T16:40:42.429Z,14.84
2023-03-17T16:43:25.209Z,14.78
2023-03-17T16:45:59.054Z,14.76
2023-03-17T16:48:26.651Z,14.83
2023-03-17T16:50:54.079Z,14.77
2023-03-17T16:53:21.114Z,14.66
2023-03-17T16:55:49.027Z,14.72
2023-03-17T16:58:21.765Z,14.83
2023-03-17T17:00:51.335Z,14.75
2023-03-17T17:03:18.599Z,14.63
2023-03-17T17:05:45.829Z,14.65
2023-03-17T17:08:12.470Z,14.83
2023-03-17T17:10:40.761Z,14.92
2023-03-17T17:13:09.790Z,14.85
2023-03-17T17:15:37.633Z,14.74
2023-03-17T17:18:11.062Z,14.74
2023-03-17T17:20:39.473Z,14.57
2023-03-17T17:23:10.881Z,14.53
2023-03-17T17:25:37.564Z,14.49
2023-03-17T17:28:05.583Z,14.72
2023-03-17T17:30:32.852Z,14.73
2023-03-17T17:33:01.607Z,14.66
2023-03-17T17:35:32.842Z,14.60
2023-03-17T17:38:01.700Z,14.53
2023-03-17T17:40:29.251Z,14.48
2023-03-17T17:42:57.817Z,14.49
2023-03-17T17:45:25.834Z,14.45
2023-03-17T17:47:52.520Z,14.44
2023-03-17T17:50:23.325Z,14.42
2023-03-17T17:52:49.991Z,14.39
2023-03-17T17:55:17.356Z,14.34
2023-03-17T17:57:44.061Z,14.32
2023-03-17T18:00:14.604Z,14.30
2023-03-17T18:02:41.185Z,14.30
2023-03-17T18:05:09.023Z,14.29
2023-03-17T18:07:35.922Z,14.24
2023-03-17T18:10:03.477Z,14.22
2023-03-17T18:12:30.333Z,14.22
2023-03-17T18:14:57.381Z,14.24
2023-03-17T18:17:24.566Z,14.15
2023-03-17T18:19:55.410Z,14.25
2023-03-17T18:22:22.540Z,14.24
2023-03-17T18:24:50.229Z,14.24
2023-03-17T18:27:17.193Z,14.22
2023-03-17T18:29:44.797Z,14.29
2023-03-17T18:32:12.544Z,14.33
2023-03-17T18:34:46.914Z,14.27
2023-03-17T18:37:16.748Z,14.21
2023-03-17T18:39:44.624Z,14.15
2023-03-17T18:42:11.880Z,14.03
2023-03-17T18:44:39.985Z,14.07
2023-03-17T18:47:07.427Z,14.07
2023-03-17T18:49:34.393Z,13.98
2023-03-17T18:52:01.134Z,14.07
2023-03-17T18:54:28.441Z,13.97
2023-03-17T18:56:55.715Z,14.02
2023-03-17T18:59:22.363Z,14.06
2023-03-17T19:01:49.066Z,13.97
2023-03-17T19:04:16.686Z,14.02
2023-03-17T19:06:43.405Z,14.03
2023-03-17T19:09:11.187Z,13.96
2023-03-17T19:11:41.889Z,13.93
2023-03-17T19:14:09.952Z,13.83
2023-03-17T19:16:36.789Z,13.91
2023-03-17T19:19:03.662Z,13.92
2023-03-17T19:21:30.945Z,13.88
2023-03-17T19:24:00.516Z,13.92
2023-03-17T19:26:27.433Z,14.04
2023-03-17T19:28:56.603Z,13.90
2023-03-17T19:31:24.850Z,13.76
2023-03-17T19:33:52.009Z,13.82
2023-03-17T19:36:18.899Z,13.98
2023-03-17T19:38:45.941Z,13.80
2023-03-17T19:41:13.500Z,13.71
2023-03-17T19:43:41.744Z,13.58
2023-03-17T19:46:10.854Z,13.50
2023-03-17T19:48:38.098Z,13.61
2023-03-17T19:51:05.564Z,13.62
2023-03-17T19:53:32.231Z,13.65
2023-03-17T19:55:59.303Z,13.66
2023-03-17T19:58:26.988Z,13.67
2023-03-17T20:00:53.571Z,13.67
2023-03-17T20:03:20.540Z,13.70
2023-03-17T20:05:47.217Z,13.73
2023-03-17T20:08:14.588Z,13.77
2023-03-17T20:10:41.846Z,13.74
2023-03-17T20:13:09.088Z,13.61
2023-03-17T20:15:36.627Z,13.74
2023-03-17T20:18:03.907Z,13.72
2023-03-17T20:20:31.304Z,13.66
2023-03-17T20:22:58.043Z,13.66
2023-03-17T20:25:24.604Z,13.52
2023-03-17T20:27:51.666Z,13.49
2023-03-17T20:30:18.608Z,13.47
2023-03-17T20:32:45.296Z,13.58
2023-03-17T20:35:12.253Z,13.64
2023-03-17T20:37:39.438Z,13.71
2023-03-17T20:40:08.861Z,13.63
2023-03-17T20:42:36.342Z,13.60
2023-03-17T20:45:04.032Z,13.34
2023-03-17T20:47:31.445Z,13.59
2023-03-17T20:49:59.423Z,13.48
2023-03-17T20:52:30.021Z,13.54
2023-03-17T20:54:59.291Z,13.62
2023-03-17T20:57:26.374Z,13.57
2023-03-17T20:59:53.175Z,13.51
2023-03-17T21:02:19.914Z,13.61
2023-03-17T21:04:48.831Z,13.40
2023-03-17T21:07:18.139Z,13.33
2023-03-17T21:09:45.557Z,13.26
2023-03-17T21:12:20.446Z,13.23
2023-03-17T21:14:50.592Z,13.23
2023-03-17T21:17:18.085Z,13.21
2023-03-17T21:19:45.497Z,13.26
2023-03-17T21:22:12.549Z,13.33
2023-03-17T21:24:39.894Z,13.46
2023-03-17T21:27:11.038Z,13.35
2023-03-17T21:29:38.676Z,13.38
2023-03-17T21:32:07.186Z,13.28
2023-03-17T21:34:34.762Z,13.33
2023-03-17T21:37:01.660Z,13.26
2023-03-17T21:39:29.906Z,13.22
2023-03-17T21:41:56.944Z,13.28
2023-03-17T21:44:24.328Z,13.27
2023-03-17T21:46:53.470Z,13.30
2023-03-17T21:49:21.257Z,13.36
2023-03-17T21:51:47.858Z,13.11
2023-03-17T21:54:14.835Z,13.21
2023-03-17T21:56:42.656Z,13.19
2023-03-17T21:59:11.119Z,13.12
2023-03-17T22:01:38.913Z,13.06
2023-03-17T22:04:05.776Z,13.15
2023-03-17T22:06:32.507Z,13.20
2023-03-17T22:08:59.833Z,13.39
2023-03-17T22:11:26.602Z,13.27
2023-03-17T22:13:53.232Z,13.30
2023-03-17T22:16:20.276Z,13.29
2023-03-17T22:18:47.457Z,13.24
2023-03-17T22:21:14.650Z,13.23
2023-03-17T22:23:42.226Z,13.22
2023-03-17T22:26:12.394Z,13.20
2023-03-17T22:28:39.652Z,13.15
2023-03-17T22:31:15.126Z,13.19
2023-03-17T22:33:41.774Z,13.12
2023-03-17T22:36:09.352Z,13.17
2023-03-17T22:38:36.523Z,13.35
2023-03-17T22:41:09.189Z,13.28
2023-03-17T22:43:37.755Z,13.37
2023-03-17T22:46:05.032Z,13.29
2023-03-17T22:48:32.694Z,13.33
2023-03-17T22:51:08.928Z,13.24
2023-03-17T22:53:36.697Z,13.29
2023-03-17T22:56:04.632Z,13.25
2023-03-17T22:58:31.875Z,13.24
2023-03-17T23:00:58.751Z,13.24
2023-03-17T23:03:26.683Z,13.34
2023-03-17T23:05:59.576Z,13.31
2023-03-17T23:08:29.237Z,13.19
2023-03-17T23:10:57.236Z,13.22
2023-03-17T23:13:24.180Z,13.30
2023-03-17T23:15:51.606Z,13.26
2023-03-17T23:18:18.336Z,13.19
2023-03-17T23:20:45.738Z,13.22
2023-03-17T23:23:12.739Z,13.23
2023-03-17T23:25:40.206Z,13.23
2023-03-17T23:28:08.057Z,13.45
2023-03-17T23:30:35.752Z,13.46
2023-03-17T23:33:04.614Z,13.42
2023-03-17T23:35:32.063Z,13.39
2023-03-17T23:37:59.208Z,13.44
2023-03-17T23:40:26.273Z,13.29
2023-03-17T23:42:55.014Z,13.18
2023-03-17T23:45:23.088Z,13.01
2023-03-17T23:47:51.580Z,13.08
2023-03-17T23:50:19.614Z,13.16
2023-03-17T23:52:47.069Z,13.20
2023-03-17T23:55:15.942Z,13.19
2023-03-17T23:57:44.022Z,13.20
